Time;durP1;ratioP1;P1;durP2;ratioP2;P2;SDS_P1;SDS_P2;PMS_P1;PMS_P2;Temp;Humidity;BMP_temperature;BMP_pressure;BME280_temperature;BME280_humidity;BME280_pressure;Samples;Min_cycle;Max_cycle;Signal;HPM_P1;HPM_P2
2022/05/07 00:00:41;;;;;;;12.95;11.43;;;;;;;;;;2083131;28;20389;-54
2022/05/07 00:01:42;;;;;;;13.20;11.35;;;;;;;;;;2082554;28;20176;-52
2022/05/07 00:02:42;;;;;;;13.02;11.65;;;;;;;;;;2082734;28;20251;-54
2022/05/07 00:03:42;;;;;;;12.15;10.95;;;;;;;;;;2082407;28;20161;-51
2022/05/07 00:04:43;;;;;;;11.10;9.95;;;;;;;;;;2082337;28;20214;-52
2022/05/07 00:05:43;;;;;;;10.88;9.90;;;;;;;;;;2082589;28;20253;-50
2022/05/07 00:06:43;;;;;;;12.77;11.15;;;;;;;;;;2082990;28;20204;-52
2022/05/07 00:07:44;;;;;;;13.13;10.25;;;;;;;;;;2083246;28;20171;-52
2022/05/07 00:08:44;;;;;;;11.43;10.32;;;;;;;;;;2082662;28;20160;-50
2022/05/07 00:09:44;;;;;;;11.85;10.65;;;;;;;;;;2082543;28;20181;-54
2022/05/07 00:10:44;;;;;;;12.20;10.93;;;;;;;;;;2083756;28;20218;-54
2022/05/07 00:11:48;;;;;;;10.65;9.68;;;;;;;;;;2083385;28;20588;-52
2022/05/07 00:12:48;;;;;;;11.10;10.05;;;;;;;;;;2083663;28;20227;-55
2022/05/07 00:13:49;;;;;;;11.63;10.52;;;;;;;;;;2083674;28;20222;-53
2022/05/07 00:14:49;;;;;;;12.05;10.73;;;;;;;;;;2083983;28;20551;-53
2022/05/07 00:18:28;;;;;;;14.02;11.40;;;;;;;;;;2083276;28;20215;-52
2022/05/07 00:19:28;;;;;;;12.45;11.23;;;;;;;;;;2083477;28;20179;-53
2022/05/07 00:20:29;;;;;;;13.90;12.25;;;;;;;;;;2084275;28;20560;-53
2022/05/07 00:21:29;;;;;;;13.52;12.15;;;;;;;;;;2083911;28;20611;-52
2022/05/07 00:22:29;;;;;;;14.45;11.77;;;;;;;;;;2084137;28;20164;-55
2022/05/07 00:23:30;;;;;;;14.48;11.85;;;;;;;;;;2084038;28;20161;-51
2022/05/07 00:24:31;;;;;;;12.70;11.48;;;;;;;;;;2083906;28;20503;-53
2022/05/07 00:25:32;;;;;;;14.23;11.15;;;;;;;;;;2083705;28;20168;-52
2022/05/07 00:26:32;;;;;;;13.63;12.32;;;;;;;;;;2084149;28;20207;-51
2022/05/07 00:27:32;;;;;;;12.93;10.80;;;;;;;;;;2083669;28;20164;-51
2022/05/07 00:28:32;;;;;;;11.88;10.68;;;;;;;;;;2084188;28;20192;-54
2022/05/07 00:29:33;;;;;;;10.75;9.65;;;;;;;;;;2084249;28;20238;-52
2022/05/07 00:30:33;;;;;;;10.85;9.55;;;;;;;;;;2083374;28;20164;-51
2022/05/07 00:31:33;;;;;;;10.68;9.70;;;;;;;;;;2082687;28;20165;-54
2022/05/07 00:32:34;;;;;;;12.30;10.43;;;;;;;;;;2082630;28;20723;-56
2022/05/07 00:33:34;;;;;;;12.63;11.35;;;;;;;;;;2074597;28;20557;-53
2022/05/07 00:34:35;;;;;;;11.38;10.38;;;;;;;;;;2082643;28;20180;-52
2022/05/07 00:35:35;;;;;;;11.50;9.95;;;;;;;;;;2083835;28;20171;-54
2022/05/07 00:36:36;;;;;;;11.90;10.70;;;;;;;;;;2083906;28;20176;-56
2022/05/07 00:37:36;;;;;;;10.48;9.38;;;;;;;;;;2083820;28;20229;-51
2022/05/07 00:38:37;;;;;;;11.65;10.20;;;;;;;;;;2083258;28;20196;-55
2022/05/07 00:39:37;;;;;;;10.95;9.68;;;;;;;;;;2075183;28;20260;-54
2022/05/07 00:40:37;;;;;;;13.40;11.60;;;;;;;;;;2076117;28;20698;-55
2022/05/07 00:41:39;;;;;;;12.18;10.63;;;;;;;;;;2083433;28;20722;-55
2022/05/07 00:42:39;;;;;;;13.10;11.80;;;;;;;;;;2082395;28;20172;-56
2022/05/07 00:43:41;;;;;;;13.27;11.88;;;;;;;;;;2074577;28;20216;-56
2022/05/07 00:44:41;;;;;;;13.45;11.50;;;;;;;;;;2074337;28;20555;-55
2022/05/07 00:45:43;;;;;;;15.50;12.73;;;;;;;;;;2083772;28;20203;-56
2022/05/07 00:46:44;;;;;;;16.35;14.32;;;;;;;;;;2083924;28;20259;-55
2022/05/07 00:47:45;;;;;;;21.58;19.27;;;;;;;;;;2082302;28;20675;-55
2022/05/07 00:48:45;;;;;;;19.90;17.88;;;;;;;;;;2082497;28;20242;-54
2022/05/07 00:49:47;;;;;;;17.55;15.75;;;;;;;;;;2085760;28;20163;-55
2022/05/07 00:52:07;;;;;;;22.58;20.15;;;;;;;;;;2081761;28;20196;-52
2022/05/07 00:53:07;;;;;;;17.65;15.85;;;;;;;;;;2082399;28;20168;-53
2022/05/07 00:54:10;;;;;;;14.48;12.98;;;;;;;;;;2081530;28;20184;-51
2022/05/07 00:55:13;;;;;;;13.63;11.77;;;;;;;;;;2082340;28;20170;-56
2022/05/07 00:56:14;;;;;;;12.50;11.20;;;;;;;;;;2081912;28;20168;-53
2022/05/07 00:57:15;;;;;;;12.05;10.85;;;;;;;;;;2082249;28;20172;-53
2022/05/07 00:58:16;;;;;;;11.18;9.50;;;;;;;;;;2082109;28;20196;-55
2022/05/07 00:59:17;;;;;;;12.43;11.13;;;;;;;;;;2082298;28;20889;-54
2022/05/07 01:00:17;;;;;;;11.52;10.43;;;;;;;;;;2074045;28;20184;-55
2022/05/07 01:01:18;;;;;;;11.27;10.10;;;;;;;;;;2073546;28;20176;-55
2022/05/07 01:02:18;;;;;;;11.73;10.63;;;;;;;;;;2073595;28;20636;-52
2022/05/07 01:03:18;;;;;;;10.77;9.48;;;;;;;;;;2066151;28;20309;-52
2022/05/07 01:04:19;;;;;;;10.13;9.23;;;;;;;;;;2065743;28;20239;-54
2022/05/07 01:05:19;;;;;;;10.60;9.60;;;;;;;;;;2073102;28;20180;-54
2022/05/07 01:06:20;;;;;;;10.10;9.18;;;;;;;;;;2081887;28;20176;-54
2022/05/07 01:07:21;;;;;;;10.70;9.60;;;;;;;;;;2081542;28;20180;-52
2022/05/07 01:08:21;;;;;;;10.45;9.48;;;;;;;;;;2073395;28;20200;-51
2022/05/07 01:09:22;;;;;;;11.52;9.68;;;;;;;;;;2081245;28;20172;-55
2022/05/07 01:10:23;;;;;;;10.95;10.00;;;;;;;;;;2073067;28;20701;-52
2022/05/07 01:11:24;;;;;;;10.48;9.48;;;;;;;;;;2073263;28;20172;-54
2022/05/07 01:12:30;;;;;;;10.93;9.82;;;;;;;;;;2074276;28;20173;-54
2022/05/07 01:13:30;;;;;;;10.20;9.40;;;;;;;;;;2073454;28;20169;-54
2022/05/07 01:14:32;;;;;;;10.35;9.40;;;;;;;;;;2081078;28;20636;-53
2022/05/07 01:15:41;;;;;;;11.13;9.75;;;;;;;;;;2073296;28;20177;-53
2022/05/07 01:16:43;;;;;;;10.35;9.25;;;;;;;;;;2074110;28;20235;-53
2022/05/07 01:17:43;;;;;;;10.10;9.18;;;;;;;;;;2080724;28;20174;-50
2022/05/07 01:18:46;;;;;;;12.77;9.45;;;;;;;;;;2073271;28;20205;-52
2022/05/07 01:19:47;;;;;;;10.77;9.65;;;;;;;;;;2073036;28;20185;-54
2022/05/07 01:20:47;;;;;;;10.40;9.52;;;;;;;;;;2073941;28;20645;-54
2022/05/07 01:21:49;;;;;;;10.52;9.40;;;;;;;;;;2073044;28;20188;-53
2022/05/07 01:22:50;;;;;;;10.48;9.35;;;;;;;;;;2065089;28;20269;-54
2022/05/07 01:23:59;;;;;;;10.40;9.38;;;;;;;;;;2075930;28;20679;-53
2022/05/07 01:25:03;;;;;;;10.00;9.05;;;;;;;;;;2081054;28;20180;-53
2022/05/07 01:26:04;;;;;;;10.70;8.95;;;;;;;;;;2080747;28;20181;-56
2022/05/07 01:27:08;;;;;;;10.27;9.35;;;;;;;;;;2073402;28;20168;-52
2022/05/07 01:28:08;;;;;;;10.30;9.30;;;;;;;;;;2080926;28;20188;-56
2022/05/07 01:29:11;;;;;;;10.57;9.50;;;;;;;;;;2073391;28;20717;-52
2022/05/07 01:30:14;;;;;;;11.18;9.35;;;;;;;;;;2073199;28;20177;-52
2022/05/07 01:31:16;;;;;;;9.77;8.85;;;;;;;;;;2072112;28;20187;-52
2022/05/07 01:32:16;;;;;;;10.00;8.90;;;;;;;;;;2080907;28;20168;-51
2022/05/07 01:33:16;;;;;;;9.77;8.80;;;;;;;;;;2080922;28;20255;-54
2022/05/07 01:34:17;;;;;;;9.00;8.20;;;;;;;;;;2072240;28;20279;-52
2022/05/07 01:35:24;;;;;;;10.20;9.23;;;;;;;;;;2073920;28;20169;-51
2022/05/07 01:36:27;;;;;;;9.68;8.68;;;;;;;;;;2080576;28;20645;-53
2022/05/07 01:37:33;;;;;;;9.88;8.82;;;;;;;;;;2081256;28;20167;-54
2022/05/07 01:38:34;;;;;;;10.10;9.20;;;;;;;;;;2072712;28;20613;-55
2022/05/07 01:39:34;;;;;;;10.15;9.25;;;;;;;;;;2080976;28;20168;-52
2022/05/07 01:40:35;;;;;;;10.15;9.25;;;;;;;;;;2080910;28;20241;-53
2022/05/07 01:41:37;;;;;;;10.30;9.38;;;;;;;;;;2080950;28;20236;-53
2022/05/07 01:42:39;;;;;;;9.77;8.82;;;;;;;;;;2073111;28;20633;-53
2022/05/07 01:43:42;;;;;;;10.02;9.13;;;;;;;;;;2080762;28;20179;-52
2022/05/07 01:44:42;;;;;;;10.98;9.40;;;;;;;;;;2080713;28;20687;-53
2022/05/07 01:45:43;;;;;;;10.38;9.48;;;;;;;;;;2081105;28;20645;-52
2022/05/07 01:48:13;;;;;;;10.55;9.65;;;;;;;;;;2080866;28;20202;-54
2022/05/07 01:49:23;;;;;;;10.82;9.73;;;;;;;;;;2067282;28;20200;-54
2022/05/07 01:50:25;;;;;;;10.38;9.48;;;;;;;;;;2087124;28;20179;-53
2022/05/07 01:51:25;;;;;;;10.75;9.18;;;;;;;;;;2072667;28;20208;-55
2022/05/07 01:52:25;;;;;;;9.75;8.85;;;;;;;;;;2072805;28;20169;-53
2022/05/07 01:53:26;;;;;;;9.48;8.68;;;;;;;;;;2080732;28;20660;-54
2022/05/07 01:54:28;;;;;;;10.77;9.75;;;;;;;;;;2080423;28;20778;-51
2022/05/07 01:55:28;;;;;;;10.75;9.75;;;;;;;;;;2081630;28;20188;-50
2022/05/07 01:56:29;;;;;;;11.38;10.20;;;;;;;;;;2080836;28;20665;-54
2022/05/07 01:57:29;;;;;;;11.05;10.00;;;;;;;;;;2080970;28;20200;-53
2022/05/07 01:58:30;;;;;;;11.60;10.55;;;;;;;;;;2072707;28;20205;-55
2022/05/07 01:59:35;;;;;;;10.48;9.27;;;;;;;;;;2073166;28;20172;-52
2022/05/07 02:00:40;;;;;;;11.75;10.30;;;;;;;;;;2072965;28;20188;-53
2022/05/07 02:01:40;;;;;;;10.73;9.73;;;;;;;;;;2072762;28;20168;-54
2022/05/07 02:02:43;;;;;;;11.82;9.95;;;;;;;;;;2072702;28;20177;-54
2022/05/07 02:03:51;;;;;;;11.00;9.90;;;;;;;;;;2073328;28;20177;-52
2022/05/07 02:04:56;;;;;;;10.57;9.55;;;;;;;;;;2072838;28;20172;-54
2022/05/07 02:05:58;;;;;;;10.90;9.73;;;;;;;;;;2080796;28;20185;-54
2022/05/07 02:06:58;;;;;;;10.68;9.60;;;;;;;;;;2080801;28;20211;-52
2022/05/07 02:07:59;;;;;;;9.90;8.63;;;;;;;;;;2080716;28;20211;-53
2022/05/07 02:09:00;;;;;;;9.88;8.95;;;;;;;;;;2080736;28;20195;-52
2022/05/07 02:10:04;;;;;;;10.25;9.20;;;;;;;;;;2080635;28;20258;-53
2022/05/07 02:11:06;;;;;;;10.43;9.32;;;;;;;;;;2072780;28;20175;-55
2022/05/07 02:12:08;;;;;;;10.25;9.35;;;;;;;;;;2072787;28;20590;-54
2022/05/07 02:13:13;;;;;;;10.88;9.30;;;;;;;;;;2080822;28;20200;-55
2022/05/07 02:14:14;;;;;;;12.15;10.95;;;;;;;;;;2080039;28;20218;-55
2022/05/07 02:15:14;;;;;;;11.68;10.57;;;;;;;;;;2072576;28;20681;-53
2022/05/07 02:16:15;;;;;;;11.10;10.13;;;;;;;;;;2072615;28;20226;-55
2022/05/07 02:17:17;;;;;;;10.30;9.38;;;;;;;;;;2080590;28;20732;-55
2022/05/07 02:18:17;;;;;;;9.77;8.98;;;;;;;;;;2081009;28;20204;-51
2022/05/07 02:19:19;;;;;;;10.57;9.50;;;;;;;;;;2079370;28;20164;-51
2022/05/07 02:20:19;;;;;;;10.48;9.38;;;;;;;;;;2080564;28;20172;-54
2022/05/07 02:21:21;;;;;;;10.82;9.70;;;;;;;;;;2072648;28;20184;-51
2022/05/07 02:22:21;;;;;;;10.55;9.48;;;;;;;;;;2072631;28;20215;-52
2022/05/07 02:23:22;;;;;;;10.63;9.68;;;;;;;;;;2080919;28;20203;-56
2022/05/07 02:24:23;;;;;;;9.90;8.50;;;;;;;;;;2071959;28;20681;-51
2022/05/07 02:25:24;;;;;;;9.90;8.85;;;;;;;;;;2080552;28;20220;-50
2022/05/07 02:26:27;;;;;;;10.68;9.77;;;;;;;;;;2080661;28;20247;-54
2022/05/07 02:27:27;;;;;;;10.48;9.27;;;;;;;;;;2080634;28;20175;-51
2022/05/07 02:28:31;;;;;;;12.60;10.88;;;;;;;;;;2096625;28;20218;-55
2022/05/07 02:29:31;;;;;;;12.43;11.15;;;;;;;;;;2084576;28;20531;-54
2022/05/07 02:30:32;;;;;;;10.63;9.63;;;;;;;;;;2081709;28;20175;-52
2022/05/07 02:31:37;;;;;;;10.68;9.68;;;;;;;;;;2074657;28;20692;-53
2022/05/07 02:32:37;;;;;;;10.32;9.35;;;;;;;;;;2090258;28;20184;-53
2022/05/07 02:33:38;;;;;;;11.63;10.40;;;;;;;;;;2082094;28;20160;-52
2022/05/07 02:34:43;;;;;;;12.25;10.30;;;;;;;;;;2077127;28;20265;-54
2022/05/07 02:35:52;;;;;;;11.18;10.02;;;;;;;;;;2073796;28;20161;-53
2022/05/07 02:36:52;;;;;;;10.90;9.88;;;;;;;;;;2074232;28;20180;-52
2022/05/07 02:37:54;;;;;;;10.35;9.45;;;;;;;;;;2082275;28;20262;-54
2022/05/07 02:38:54;;;;;;;11.50;10.30;;;;;;;;;;2073922;28;20168;-54
2022/05/07 02:39:55;;;;;;;10.18;9.35;;;;;;;;;;2080956;28;20176;-55
2022/05/07 02:42:36;;;;;;;10.23;9.27;;;;;;;;;;2082257;28;20270;-52
2022/05/07 02:43:43;;;;;;;9.65;8.77;;;;;;;;;;2082150;28;20582;-53
2022/05/07 02:44:48;;;;;;;10.45;9.55;;;;;;;;;;2073837;28;20177;-52
2022/05/07 02:45:48;;;;;;;13.45;9.65;;;;;;;;;;2074438;28;20184;-53
2022/05/07 02:46:48;;;;;;;10.95;9.82;;;;;;;;;;2082222;28;20180;-52
2022/05/07 02:47:49;;;;;;;10.38;9.38;;;;;;;;;;2082266;28;20172;-51
2022/05/07 02:48:52;;;;;;;11.07;9.55;;;;;;;;;;2082045;28;20554;-53
2022/05/07 02:49:53;;;;;;;10.77;9.68;;;;;;;;;;2078583;28;20176;-52
2022/05/07 02:50:54;;;;;;;12.40;9.77;;;;;;;;;;2082881;28;20188;-54
2022/05/07 02:51:54;;;;;;;11.68;10.45;;;;;;;;;;2091183;28;20657;-54
2022/05/07 02:52:55;;;;;;;10.70;9.63;;;;;;;;;;2098930;28;20246;-55
2022/05/07 02:53:56;;;;;;;11.35;10.25;;;;;;;;;;2090916;28;20729;-52
2022/05/07 02:54:56;;;;;;;11.88;10.77;;;;;;;;;;2074135;28;20273;-51
2022/05/07 02:55:56;;;;;;;11.38;10.40;;;;;;;;;;2066458;28;20253;-54
2022/05/07 02:56:57;;;;;;;9.55;8.75;;;;;;;;;;2082564;28;20742;-54
2022/05/07 02:57:57;;;;;;;11.18;10.18;;;;;;;;;;2082494;28;20172;-54
2022/05/07 02:58:58;;;;;;;11.05;9.98;;;;;;;;;;2082632;28;20183;-55
2022/05/07 02:59:58;;;;;;;12.10;10.90;;;;;;;;;;2082282;28;20165;-52
2022/05/07 03:00:59;;;;;;;12.73;10.30;;;;;;;;;;2074099;28;20276;-54
2022/05/07 03:01:59;;;;;;;14.70;10.25;;;;;;;;;;2081987;28;20176;-51
2022/05/07 03:03:00;;;;;;;10.90;9.80;;;;;;;;;;2082233;28;20168;-52
2022/05/07 03:04:02;;;;;;;11.65;10.30;;;;;;;;;;2074079;28;20217;-53
2022/05/07 03:05:02;;;;;;;10.40;9.30;;;;;;;;;;2074061;28;20168;-51
2022/05/07 03:06:03;;;;;;;11.13;9.98;;;;;;;;;;2074062;28;20195;-54
2022/05/07 03:07:03;;;;;;;11.02;9.95;;;;;;;;;;2073830;28;20219;-54
2022/05/07 03:08:05;;;;;;;10.48;9.68;;;;;;;;;;2073974;28;20204;-54
2022/05/07 03:09:09;;;;;;;10.55;9.48;;;;;;;;;;2074168;28;20181;-51
2022/05/07 03:10:09;;;;;;;10.88;9.88;;;;;;;;;;2081989;28;20708;-51
2022/05/07 03:11:09;;;;;;;10.85;9.75;;;;;;;;;;2082286;28;20183;-52
2022/05/07 03:12:10;;;;;;;12.75;10.30;;;;;;;;;;2073981;28;20169;-53
2022/05/07 03:13:10;;;;;;;12.00;10.80;;;;;;;;;;2074125;28;20683;-51
2022/05/07 03:14:10;;;;;;;11.57;10.43;;;;;;;;;;2074353;28;20193;-54
2022/05/07 03:15:10;;;;;;;11.30;10.20;;;;;;;;;;2082171;28;20249;-54
2022/05/07 03:16:11;;;;;;;11.73;10.63;;;;;;;;;;2074515;28;20259;-54
2022/05/07 03:17:11;;;;;;;11.32;10.27;;;;;;;;;;2066324;28;20590;-53
2022/05/07 03:18:12;;;;;;;11.27;10.18;;;;;;;;;;2074976;28;20208;-54
2022/05/07 03:19:13;;;;;;;11.85;10.63;;;;;;;;;;2075193;28;20208;-55
2022/05/07 03:20:16;;;;;;;11.15;9.95;;;;;;;;;;2074439;28;20173;-56
2022/05/07 03:21:17;;;;;;;11.95;10.95;;;;;;;;;;2075156;28;20180;-54
2022/05/07 03:22:18;;;;;;;12.32;11.13;;;;;;;;;;2074038;28;20184;-52
2022/05/07 03:23:19;;;;;;;11.18;10.18;;;;;;;;;;2082275;28;20179;-54
2022/05/07 03:24:22;;;;;;;12.52;11.43;;;;;;;;;;2081035;28;20215;-53
2022/05/07 03:25:22;;;;;;;13.20;11.23;;;;;;;;;;2074965;28;20311;-53
2022/05/07 03:26:23;;;;;;;11.75;10.65;;;;;;;;;;2082374;28;20680;-52
2022/05/07 03:27:23;;;;;;;11.27;10.27;;;;;;;;;;2074203;28;20525;-52
2022/05/07 03:28:24;;;;;;;12.35;11.13;;;;;;;;;;2073952;28;20605;-51
2022/05/07 03:29:24;;;;;;;12.55;11.38;;;;;;;;;;2083861;28;20169;-52
2022/05/07 03:30:32;;;;;;;12.27;11.05;;;;;;;;;;2074079;28;20589;-53
2022/05/07 03:31:38;;;;;;;12.93;11.55;;;;;;;;;;2066294;28;20181;-53
2022/05/07 03:32:39;;;;;;;13.13;10.30;;;;;;;;;;2074021;28;20173;-53
2022/05/07 03:33:39;;;;;;;12.02;10.82;;;;;;;;;;2066875;28;20252;-54
2022/05/07 03:34:39;;;;;;;12.98;11.75;;;;;;;;;;2065433;28;20228;-53
2022/05/07 03:35:40;;;;;;;12.57;11.18;;;;;;;;;;2073584;28;20215;-53
2022/05/07 03:36:41;;;;;;;13.77;12.48;;;;;;;;;;2074177;28;20393;-55
2022/05/07 03:37:41;;;;;;;13.30;11.90;;;;;;;;;;2073891;28;20177;-53
2022/05/07 03:38:44;;;;;;;13.45;12.20;;;;;;;;;;2079399;28;20234;-51
2022/05/07 03:39:50;;;;;;;13.48;12.07;;;;;;;;;;2074802;28;20196;-55
2022/05/07 03:40:53;;;;;;;14.18;12.77;;;;;;;;;;2080893;28;20792;-53
2022/05/07 03:41:58;;;;;;;14.20;12.90;;;;;;;;;;2080385;28;20263;-53
2022/05/07 03:42:58;;;;;;;13.68;12.27;;;;;;;;;;2081858;28;20183;-52
2022/05/07 03:44:01;;;;;;;13.82;12.38;;;;;;;;;;2081438;28;20175;-51
2022/05/07 03:45:02;;;;;;;13.80;12.40;;;;;;;;;;2066224;28;20169;-50
2022/05/07 03:46:08;;;;;;;13.43;12.02;;;;;;;;;;2065831;28;20216;-52
2022/05/07 03:47:09;;;;;;;13.02;11.93;;;;;;;;;;2073737;28;20224;-55
2022/05/07 03:48:10;;;;;;;13.05;11.95;;;;;;;;;;2073549;28;20283;-52
2022/05/07 03:49:10;;;;;;;13.40;12.10;;;;;;;;;;2065409;28;20615;-54
2022/05/07 03:50:11;;;;;;;13.48;12.15;;;;;;;;;;2088048;28;20214;-51
2022/05/07 03:51:13;;;;;;;14.25;12.85;;;;;;;;;;2065552;28;20661;-53
2022/05/07 03:53:36;;;;;;;13.98;12.57;;;;;;;;;;2073408;28;20704;-54
2022/05/07 03:54:44;;;;;;;13.70;12.40;;;;;;;;;;2065904;28;20169;-50
2022/05/07 03:55:44;;;;;;;13.70;12.43;;;;;;;;;;2069398;28;20177;-50
2022/05/07 03:56:54;;;;;;;14.23;12.95;;;;;;;;;;2074550;28;20161;-51
2022/05/07 03:57:59;;;;;;;14.60;13.20;;;;;;;;;;2073985;28;21690;-52
2022/05/07 03:59:05;;;;;;;15.15;13.75;;;;;;;;;;2081818;28;20168;-52
2022/05/07 04:00:16;;;;;;;14.43;13.02;;;;;;;;;;2066682;28;20208;-52
2022/05/07 04:01:21;;;;;;;14.02;12.18;;;;;;;;;;2066182;28;20178;-55
2022/05/07 04:02:22;;;;;;;15.32;13.77;;;;;;;;;;2065277;28;20606;-52
2022/05/07 04:03:28;;;;;;;15.25;13.65;;;;;;;;;;2073666;28;20177;-51
2022/05/07 04:04:30;;;;;;;15.15;13.52;;;;;;;;;;2074628;28;20610;-52
2022/05/07 04:05:37;;;;;;;15.02;13.57;;;;;;;;;;2083536;28;20680;-50
2022/05/07 04:06:44;;;;;;;14.55;13.07;;;;;;;;;;2074972;28;20237;-51
2022/05/07 04:07:44;;;;;;;13.77;12.38;;;;;;;;;;2076090;28;20256;-53
2022/05/07 04:08:46;;;;;;;14.88;13.52;;;;;;;;;;2083607;28;20219;-53
2022/05/07 04:09:51;;;;;;;14.15;12.80;;;;;;;;;;2078264;28;20634;-51
2022/05/07 04:10:55;;;;;;;14.98;13.38;;;;;;;;;;2073358;28;20319;-52
2022/05/07 04:11:58;;;;;;;14.50;13.20;;;;;;;;;;2081069;28;20211;-51
2022/05/07 04:12:59;;;;;;;15.90;14.43;;;;;;;;;;2086680;28;20180;-52
2022/05/07 04:14:01;;;;;;;14.82;13.52;;;;;;;;;;2087717;28;20259;-49
2022/05/07 04:15:02;;;;;;;15.13;13.73;;;;;;;;;;2079093;28;20226;-52
2022/05/07 04:16:05;;;;;;;15.18;13.38;;;;;;;;;;2076491;28;20665;-52
2022/05/07 04:17:19;;;;;;;13.80;12.48;;;;;;;;;;2075351;28;20606;-50
2022/05/07 04:18:19;;;;;;;16.00;13.30;;;;;;;;;;2067025;28;20202;-53
2022/05/07 04:19:24;;;;;;;13.93;12.63;;;;;;;;;;2067795;28;20176;-53
2022/05/07 04:20:29;;;;;;;14.82;12.95;;;;;;;;;;2067395;28;20169;-54
2022/05/07 04:21:38;;;;;;;14.18;12.77;;;;;;;;;;2074192;28;20185;-54
2022/05/07 04:22:50;;;;;;;13.65;12.35;;;;;;;;;;2074630;28;20339;-51
2022/05/07 04:23:51;;;;;;;14.10;12.80;;;;;;;;;;2081764;28;20167;-55
2022/05/07 04:24:51;;;;;;;13.73;12.52;;;;;;;;;;2082023;28;20175;-54
2022/05/07 04:25:52;;;;;;;14.30;13.02;;;;;;;;;;2075360;28;20173;-52
2022/05/07 04:26:55;;;;;;;14.07;12.70;;;;;;;;;;2075596;28;20173;-50
2022/05/07 04:27:55;;;;;;;15.32;13.75;;;;;;;;;;2075382;28;20181;-50
2022/05/07 04:28:57;;;;;;;13.27;11.95;;;;;;;;;;2074924;28;20169;-51
2022/05/07 04:29:57;;;;;;;14.52;13.05;;;;;;;;;;2069196;28;20263;-53
2022/05/07 04:30:58;;;;;;;15.55;13.95;;;;;;;;;;2076176;28;20188;-53
2022/05/07 04:32:03;;;;;;;15.18;13.60;;;;;;;;;;2079179;28;20168;-51
2022/05/07 04:33:04;;;;;;;14.50;13.10;;;;;;;;;;2075282;28;20204;-51
2022/05/07 04:34:05;;;;;;;13.77;12.48;;;;;;;;;;2075017;28;20172;-52
2022/05/07 04:35:07;;;;;;;13.65;12.45;;;;;;;;;;2078249;28;20212;-53
2022/05/07 04:36:10;;;;;;;12.93;11.82;;;;;;;;;;2079011;28;20264;-51
2022/05/07 04:37:14;;;;;;;13.18;11.77;;;;;;;;;;2080842;28;20160;-51
2022/05/07 04:38:15;;;;;;;12.98;11.68;;;;;;;;;;2082596;28;20640;-50
2022/05/07 04:39:15;;;;;;;12.88;11.68;;;;;;;;;;2090796;28;20239;-51
2022/05/07 04:40:29;;;;;;;13.98;11.73;;;;;;;;;;2073590;28;20192;-53
2022/05/07 04:41:31;;;;;;;12.80;11.50;;;;;;;;;;2075211;28;20189;-51
2022/05/07 04:42:31;;;;;;;12.77;11.65;;;;;;;;;;2075686;28;20177;-51
2022/05/07 04:43:36;;;;;;;11.77;10.70;;;;;;;;;;2067769;28;20235;-51
2022/05/07 04:44:37;;;;;;;12.05;10.90;;;;;;;;;;2069194;28;20670;-50
2022/05/07 04:45:41;;;;;;;12.10;11.00;;;;;;;;;;2074269;28;20467;-51
2022/05/07 04:46:45;;;;;;;11.20;10.30;;;;;;;;;;2075219;28;20169;-51
2022/05/07 04:47:46;;;;;;;15.18;11.02;;;;;;;;;;2075281;28;20169;-51
2022/05/07 04:48:55;;;;;;;11.48;10.32;;;;;;;;;;2076518;28;20165;-56
2022/05/07 04:49:57;;;;;;;10.68;9.57;;;;;;;;;;2073802;28;20621;-52
2022/05/07 04:51:05;;;;;;;12.23;11.13;;;;;;;;;;2074471;28;20260;-53
2022/05/07 04:52:10;;;;;;;11.43;10.27;;;;;;;;;;2068509;28;20241;-53
2022/05/07 04:53:12;;;;;;;11.23;10.13;;;;;;;;;;2066655;28;20352;-54
2022/05/07 04:54:13;;;;;;;12.57;11.48;;;;;;;;;;2066666;28;20185;-51
2022/05/07 04:55:16;;;;;;;10.63;9.73;;;;;;;;;;2067221;28;20193;-51
2022/05/07 04:56:22;;;;;;;12.32;11.00;;;;;;;;;;2075064;28;20165;-54
2022/05/07 04:57:31;;;;;;;12.65;10.20;;;;;;;;;;2075402;28;20289;-52
2022/05/07 04:58:37;;;;;;;11.43;10.43;;;;;;;;;;2077154;28;20189;-52
2022/05/07 04:59:38;;;;;;;11.48;10.38;;;;;;;;;;2083019;28;20183;-52
2022/05/07 05:00:45;;;;;;;11.82;10.75;;;;;;;;;;2076281;28;20243;-52
2022/05/07 05:01:52;;;;;;;11.82;10.73;;;;;;;;;;2076923;28;20196;-51
2022/05/07 05:02:54;;;;;;;10.80;9.80;;;;;;;;;;2075398;28;20203;-51
2022/05/07 05:03:57;;;;;;;12.15;11.02;;;;;;;;;;2075256;28;20177;-53
2022/05/07 05:05:02;;;;;;;12.00;10.77;;;;;;;;;;2075636;28;20236;-51
2022/05/07 05:06:02;;;;;;;11.95;10.93;;;;;;;;;;2075473;28;20199;-51
2022/05/07 05:07:20;;;;;;;11.23;9.98;;;;;;;;;;2083238;28;20176;-53
2022/05/07 05:08:21;;;;;;;12.20;11.00;;;;;;;;;;2093120;22;20200;-54
2022/05/07 05:09:22;;;;;;;11.02;9.85;;;;;;;;;;2079571;28;20685;-52
2022/05/07 05:10:28;;;;;;;11.70;10.50;;;;;;;;;;2084930;28;20258;-49
2022/05/07 05:11:29;;;;;;;11.55;10.35;;;;;;;;;;2084624;28;20171;-55
2022/05/07 05:12:29;;;;;;;12.30;11.13;;;;;;;;;;2089716;28;20155;-53
2022/05/07 05:13:30;;;;;;;12.95;10.60;;;;;;;;;;2088869;28;20199;-53
2022/05/07 05:15:50;;;;;;;12.32;11.13;;;;;;;;;;2075502;28;20650;-57
2022/05/07 05:17:09;;;;;;;14.48;11.43;;;;;;;;;;2079845;28;20556;-57
2022/05/07 05:18:15;;;;;;;13.18;11.55;;;;;;;;;;2078267;28;20183;-56
2022/05/07 05:19:19;;;;;;;12.52;11.25;;;;;;;;;;2080844;28;20603;-53
2022/05/07 05:20:19;;;;;;;12.40;11.15;;;;;;;;;;2081581;28;20172;-52
2022/05/07 05:21:27;;;;;;;11.93;10.95;;;;;;;;;;2080874;28;20675;-53
2022/05/07 05:22:45;;;;;;;11.93;10.75;;;;;;;;;;2072413;28;20239;-52
2022/05/07 05:23:46;;;;;;;12.02;10.93;;;;;;;;;;2065275;28;20177;-58
2022/05/07 05:24:47;;;;;;;13.18;11.90;;;;;;;;;;2064225;28;20212;-54
2022/05/07 05:25:47;;;;;;;14.10;12.43;;;;;;;;;;2068257;28;20260;-58
2022/05/07 05:26:58;;;;;;;13.65;11.05;;;;;;;;;;2073624;28;20168;-54
2022/05/07 05:28:06;;;;;;;12.93;11.68;;;;;;;;;;2074067;28;20205;-54
2022/05/07 05:29:07;;;;;;;13.55;12.35;;;;;;;;;;2072625;28;20165;-53
2022/05/07 05:30:08;;;;;;;13.68;12.38;;;;;;;;;;2080889;28;20168;-53
2022/05/07 05:31:09;;;;;;;13.75;12.23;;;;;;;;;;2081047;28;20326;-54
2022/05/07 05:32:19;;;;;;;13.77;12.35;;;;;;;;;;2072743;28;20614;-53
2022/05/07 05:33:24;;;;;;;13.82;12.40;;;;;;;;;;2065992;28;20188;-55
2022/05/07 05:34:38;;;;;;;13.00;11.80;;;;;;;;;;2066123;28;20169;-56
2022/05/07 05:35:39;;;;;;;13.65;12.45;;;;;;;;;;2056560;28;20671;-66
2022/05/07 05:36:39;;;;;;;14.07;12.65;;;;;;;;;;2057996;28;20205;-52
2022/05/07 05:37:40;;;;;;;12.90;11.57;;;;;;;;;;2071824;28;20173;-58
2022/05/07 05:38:40;;;;;;;13.15;11.88;;;;;;;;;;2072610;28;20375;-63
2022/05/07 05:39:43;;;;;;;14.23;12.57;;;;;;;;;;2072845;28;20180;-62
2022/05/07 05:40:44;;;;;;;13.13;11.68;;;;;;;;;;2072795;28;20188;-60
2022/05/07 05:41:44;;;;;;;12.00;11.00;;;;;;;;;;2080860;28;20175;-51
2022/05/07 05:42:45;;;;;;;13.07;11.88;;;;;;;;;;2080245;28;20250;-50
2022/05/07 05:43:46;;;;;;;16.15;12.55;;;;;;;;;;2080097;28;20180;-50
2022/05/07 05:44:47;;;;;;;15.57;12.32;;;;;;;;;;2080556;28;20269;-55
2022/05/07 05:45:53;;;;;;;12.90;11.70;;;;;;;;;;2080740;28;20669;-56
2022/05/07 05:46:53;;;;;;;14.27;12.70;;;;;;;;;;2072705;28;20173;-53
2022/05/07 05:47:55;;;;;;;13.35;12.05;;;;;;;;;;2072611;28;20192;-53
2022/05/07 05:48:55;;;;;;;13.23;12.02;;;;;;;;;;2081039;28;20192;-55
2022/05/07 05:49:57;;;;;;;14.02;12.63;;;;;;;;;;2089105;28;20180;-54
2022/05/07 05:51:04;;;;;;;14.48;13.07;;;;;;;;;;2080140;28;20657;-53
2022/05/07 05:52:09;;;;;;;13.05;11.90;;;;;;;;;;2073069;28;20226;-56
2022/05/07 05:53:10;;;;;;;13.45;12.25;;;;;;;;;;2065186;28;20593;-51
2022/05/07 05:54:13;;;;;;;15.35;12.55;;;;;;;;;;2064633;28;20653;-55
2022/05/07 05:55:14;;;;;;;14.63;11.90;;;;;;;;;;2066420;28;20205;-53
2022/05/07 05:56:15;;;;;;;16.30;13.30;;;;;;;;;;2080715;28;20176;-56
2022/05/07 05:57:22;;;;;;;16.02;12.35;;;;;;;;;;2080687;28;20547;-55
2022/05/07 05:58:22;;;;;;;13.48;12.30;;;;;;;;;;2071922;28;20247;-52
2022/05/07 05:59:23;;;;;;;14.30;12.88;;;;;;;;;;2072083;28;20211;-52
2022/05/07 06:00:28;;;;;;;13.82;12.18;;;;;;;;;;2072670;28;20250;-58
2022/05/07 06:01:28;;;;;;;15.00;12.60;;;;;;;;;;2072094;28;20644;-54
2022/05/07 06:02:45;;;;;;;14.13;12.48;;;;;;;;;;2074520;28;20826;-51
2022/05/07 06:03:51;;;;;;;16.73;12.70;;;;;;;;;;2072529;28;20173;-54
2022/05/07 06:04:53;;;;;;;15.35;13.68;;;;;;;;;;2080148;28;20664;-55
2022/05/07 06:05:56;;;;;;;14.25;12.85;;;;;;;;;;2072100;28;20184;-56
2022/05/07 06:06:56;;;;;;;13.38;12.18;;;;;;;;;;2073049;28;20180;-52
2022/05/07 06:07:57;;;;;;;14.65;13.20;;;;;;;;;;2072325;28;20219;-52
2022/05/07 06:09:06;;;;;;;15.40;13.30;;;;;;;;;;2064036;28;20189;-54
2022/05/07 06:10:07;;;;;;;14.23;12.60;;;;;;;;;;2057322;28;20170;-54
2022/05/07 06:11:07;;;;;;;13.32;12.13;;;;;;;;;;2072178;28;20181;-54
2022/05/07 06:12:08;;;;;;;13.35;12.13;;;;;;;;;;2072298;28;20168;-56
2022/05/07 06:13:08;;;;;;;14.65;13.18;;;;;;;;;;2072592;28;20173;-56
2022/05/07 06:14:13;;;;;;;14.07;12.75;;;;;;;;;;2072680;28;20172;-56